Time;durP1;ratioP1;P1;durP2;ratioP2;P2;SDS_P1;SDS_P2;PMS_P1;PMS_P2;Temp;Humidity;BMP_temperature;BMP_pressure;BME280_temperature;BME280_humidity;BME280_pressure;Samples;Min_cycle;Max_cycle;Signal;HPM_P1;HPM_P2
2022/07/17 12:29:31;;;;;;;;;6.00;6.00;;;;;24.41;44.92;102079.56;5040863;27;46452;-72
2022/07/17 12:32:14;;;;;;;;;6.67;5.67;;;;;24.56;45.45;102079.13;5029441;28;47258;-73
2022/07/17 12:34:45;;;;;;;;;7.67;5.33;;;;;24.73;45.17;102070.25;5021949;28;46065;-75
2022/07/17 12:37:15;;;;;;;;;4.67;4.67;;;;;24.94;45.12;102071.09;5029105;28;46210;-76
2022/07/17 12:39:41;;;;;;;;;7.67;6.00;;;;;25.16;45.27;102075.34;5033972;28;47211;-76
2022/07/17 12:42:07;;;;;;;;;5.00;5.00;;;;;25.41;44.46;102074.84;5039724;28;45595;-76
2022/07/17 12:44:33;;;;;;;;;4.33;4.33;;;;;25.62;44.31;102067.31;5045164;28;45487;-76
2022/07/17 12:46:58;;;;;;;;;6.67;4.33;;;;;25.83;44.05;102060.75;5042202;28;45419;-76
2022/07/17 12:49:25;;;;;;;;;4.67;4.67;;;;;26.02;43.83;102061.63;5043760;28;45426;-75
2022/07/17 12:51:50;;;;;;;;;6.00;6.00;;;;;26.17;43.33;102054.66;5037314;28;45634;-75
2022/07/17 12:54:15;;;;;;;;;6.00;6.00;;;;;26.30;43.08;102056.19;5044690;28;45429;-77
2022/07/17 12:56:41;;;;;;;;;5.33;5.33;;;;;26.40;42.75;102051.50;5046419;28;45345;-75
2022/07/17 12:59:07;;;;;;;;;4.67;4.00;;;;;26.51;43.01;102046.81;5047120;28;45321;-75
2022/07/17 13:01:33;;;;;;;;;5.00;4.00;;;;;26.61;42.35;102041.31;5044689;28;45380;-77
2022/07/17 13:03:59;;;;;;;;;4.00;4.00;;;;;26.74;42.19;102047.19;5048738;28;45649;-75
2022/07/17 13:06:24;;;;;;;;;5.33;5.33;;;;;26.84;42.05;102038.91;5046724;28;45421;-76
2022/07/17 13:08:49;;;;;;;;;4.33;3.00;;;;;26.94;41.76;102041.56;5039581;28;45503;-75
2022/07/17 13:11:15;;;;;;;;;5.33;5.33;;;;;27.02;41.49;102038.88;5041160;28;45999;-75
2022/07/17 13:13:40;;;;;;;;;5.67;5.00;;;;;27.08;41.49;102043.69;5041486;28;45443;-74
2022/07/17 13:16:05;;;;;;;;;5.00;4.00;;;;;27.09;41.58;102031.78;5042427;28;45471;-77
2022/07/17 13:18:31;;;;;;;;;5.00;4.67;;;;;27.14;41.85;102030.44;5045807;28;46173;-77
2022/07/17 13:20:56;;;;;;;;;5.00;5.00;;;;;27.16;41.27;102040.16;5038659;28;46585;-77
2022/07/17 13:23:21;;;;;;;;;4.00;4.00;;;;;27.19;41.30;102036.25;5052562;28;45432;-77
2022/07/17 13:25:47;;;;;;;;;2.00;2.00;;;;;27.21;41.33;102037.81;5039106;28;46292;-79
2022/07/17 13:28:12;;;;;;;;;3.33;2.33;;;;;27.23;41.62;102024.84;5045563;28;49190;-75
2022/07/17 13:30:38;;;;;;;;;3.33;3.33;;;;;27.28;41.52;102029.81;5039540;28;45889;-76
2022/07/17 13:33:04;;;;;;;;;3.67;2.00;;;;;27.35;40.99;102030.03;5034613;28;45735;-77
2022/07/17 13:35:29;;;;;;;;;5.00;5.00;;;;;27.41;40.50;102032.09;5043546;28;45598;-76
2022/07/17 13:37:56;;;;;;;;;5.00;4.00;;;;;27.45;41.08;102030.75;5032571;28;46093;-77
2022/07/17 13:40:24;;;;;;;;;4.00;4.00;;;;;27.52;41.16;102030.09;5035300;28;45639;-77
2022/07/17 13:42:49;;;;;;;;;5.00;3.67;;;;;27.56;40.51;102026.88;5032831;28;47334;-76
2022/07/17 13:45:15;;;;;;;;;3.00;3.00;;;;;27.62;41.06;102025.38;5030393;28;45416;-76
2022/07/17 13:47:40;;;;;;;;;4.00;4.00;;;;;27.67;40.32;102025.72;5033985;28;45655;-75
2022/07/17 13:50:06;;;;;;;;;5.33;3.00;;;;;27.68;40.29;102012.97;5030296;28;45399;-75
2022/07/17 13:52:31;;;;;;;;;3.67;3.67;;;;;27.67;40.71;102005.81;5034108;28;45890;-77
2022/07/17 13:54:57;;;;;;;;;6.00;4.00;;;;;27.67;40.86;102014.81;5021918;28;45420;-77
2022/07/17 13:57:23;;;;;;;;;3.33;3.33;;;;;27.67;40.85;102009.38;5019424;28;46749;-77
2022/07/17 13:59:48;;;;;;;;;7.00;4.00;;;;;27.68;40.64;102002.06;5033119;28;45377;-79
2022/07/17 14:02:15;;;;;;;;;5.67;4.67;;;;;27.70;40.13;102002.72;5029738;28;45415;-77
2022/07/17 14:04:41;;;;;;;;;3.67;3.67;;;;;27.70;40.46;102003.59;5025310;28;45397;-77
2022/07/17 14:07:07;;;;;;;;;5.67;4.00;;;;;27.70;40.23;101997.28;5033380;28;46210;-78
2022/07/17 14:09:33;;;;;;;;;3.00;2.00;;;;;27.69;40.43;101996.44;5031783;28;45237;-78
2022/07/17 14:11:58;;;;;;;;;4.00;3.00;;;;;27.72;40.12;102003.44;5032926;28;45278;-76
2022/07/17 14:14:24;;;;;;;;;3.00;3.00;;;;;27.73;40.31;102000.53;5029505;28;45448;-76
2022/07/17 14:16:49;;;;;;;;;3.33;3.33;;;;;27.79;39.91;102003.63;5034697;28;47149;-76
2022/07/17 14:19:15;;;;;;;;;4.67;4.00;;;;;27.84;39.81;101998.50;5028460;28;45529;-77
2022/07/17 14:21:40;;;;;;;;;2.00;2.00;;;;;27.87;40.04;101995.44;5033451;28;45398;-76
2022/07/17 14:24:07;;;;;;;;;4.00;4.00;;;;;27.91;39.97;101990.50;5033832;28;45344;-75
2022/07/17 14:26:33;;;;;;;;;3.00;3.00;;;;;27.88;39.49;101989.81;5030036;28;45889;-74
2022/07/17 14:28:59;;;;;;;;;3.67;3.67;;;;;27.85;39.72;101992.03;5034068;28;45846;-74
2022/07/17 14:31:24;;;;;;;;;4.67;4.67;;;;;27.84;39.86;101982.16;5032378;28;46470;-75
2022/07/17 14:33:50;;;;;;;;;4.00;4.00;;;;;27.88;39.57;101991.69;5034908;28;45426;-75
2022/07/17 14:36:15;;;;;;;;;7.67;7.33;;;;;27.90;39.55;101980.63;5032360;28;45488;-77
2022/07/17 14:38:41;;;;;;;;;8.67;3.33;;;;;27.90;39.67;101978.72;5034277;28;45378;-75
2022/07/17 14:41:06;;;;;;;;;7.00;6.33;;;;;27.91;39.38;101974.16;5034757;28;46359;-77
2022/07/17 14:43:32;;;;;;;;;7.33;4.33;;;;;27.92;39.37;101968.53;5030813;28;45444;-78
2022/07/17 14:45:58;;;;;;;;;5.00;5.00;;;;;27.97;39.60;101974.31;5031815;28;47710;-78
2022/07/17 14:48:23;;;;;;;;;4.67;4.67;;;;;28.00;39.67;101971.25;5027261;28;45470;-76
2022/07/17 14:50:48;;;;;;;;;3.33;3.33;;;;;28.04;39.12;101963.59;5030733;28;45448;-76
2022/07/17 14:53:13;;;;;;;;;5.00;3.00;;;;;28.07;39.19;101962.41;5030792;28;45517;-76
2022/07/17 14:55:39;;;;;;;;;4.00;3.67;;;;;28.08;39.58;101958.63;5029473;28;47508;-77
2022/07/17 14:58:05;;;;;;;;;4.00;4.00;;;;;28.09;38.94;101957.59;5029450;28;45546;-76
2022/07/17 15:00:30;;;;;;;;;5.67;5.00;;;;;28.05;38.96;101951.66;5026387;28;46445;-73
2022/07/17 15:02:56;;;;;;;;;12.33;7.67;;;;;28.01;39.71;101953.88;5028056;28;45515;-74
2022/07/17 15:05:21;;;;;;;;;8.67;6.67;;;;;27.97;38.98;101947.03;5030024;28;45794;-74
2022/07/17 15:07:46;;;;;;;;;11.00;6.67;;;;;27.95;38.99;101943.63;5026015;28;45561;-74
2022/07/17 15:10:12;;;;;;;;;9.67;5.00;;;;;27.91;39.19;101941.41;5023450;28;46046;-75
2022/07/17 15:12:37;;;;;;;;;8.00;4.33;;;;;27.89;39.24;101941.56;5019071;28;46085;-75
2022/07/17 15:15:03;;;;;;;;;7.67;5.00;;;;;27.87;39.82;101941.72;5019461;28;47443;-74
2022/07/17 15:17:28;;;;;;;;;5.00;5.00;;;;;27.85;39.75;101937.47;5022380;28;45758;-76
2022/07/17 15:19:54;;;;;;;;;6.00;4.67;;;;;27.93;39.21;101942.06;5022658;28;45651;-75
2022/07/17 15:22:19;;;;;;;;;6.33;4.00;;;;;27.93;39.26;101929.31;5021057;28;45625;-75
2022/07/17 15:24:44;;;;;;;;;5.00;4.00;;;;;27.98;39.71;101934.22;5021024;28;45982;-75
2022/07/17 15:27:10;;;;;;;;;8.33;6.67;;;;;28.00;39.24;101921.28;5020719;28;45443;-75
2022/07/17 15:29:36;;;;;;;;;7.67;5.33;;;;;28.04;39.74;101930.84;5023053;28;45441;-75
2022/07/17 15:32:02;;;;;;;;;6.00;3.67;;;;;28.05;39.61;101907.97;5019800;28;45487;-74
2022/07/17 15:34:27;;;;;;;;;3.00;3.00;;;;;28.10;39.14;101918.38;5020841;28;46469;-75
2022/07/17 15:36:53;;;;;;;;;6.33;5.00;;;;;28.12;39.63;101913.59;5022224;28;45543;-76
2022/07/17 15:39:19;;;;;;;;;4.67;3.67;;;;;28.13;38.98;101913.41;5022329;28;45544;-74
2022/07/17 15:41:44;;;;;;;;;5.33;3.00;;;;;28.09;38.85;101914.81;5020576;28;45486;-73
2022/07/17 15:44:10;;;;;;;;;8.67;4.67;;;;;28.06;39.64;101912.41;5023850;28;45526;-73
2022/07/17 15:46:35;;;;;;;;;3.00;3.00;;;;;28.04;39.67;101902.69;5027885;28;45487;-72
2022/07/17 15:49:00;;;;;;;;;5.00;5.00;;;;;28.03;39.65;101901.81;5028458;28;46315;-72
2022/07/17 15:51:26;;;;;;;;;3.33;3.33;;;;;28.03;38.87;101899.09;5030827;28;45392;-74
2022/07/17 15:53:52;;;;;;;;;4.00;4.00;;;;;28.05;39.10;101896.19;5022179;28;48508;-72
2022/07/17 15:56:18;;;;;;;;;6.00;5.00;;;;;28.10;38.79;101888.34;5028062;28;45441;-73
2022/07/17 15:58:43;;;;;;;;;4.00;3.00;;;;;28.13;38.72;101888.03;5019665;28;45670;-73
2022/07/17 16:01:08;;;;;;;;;4.00;4.00;;;;;28.17;38.81;101892.13;5022587;28;47241;-73
2022/07/17 16:03:34;;;;;;;;;3.00;3.00;;;;;28.19;38.23;101890.06;5020548;28;46327;-72
2022/07/17 16:05:59;;;;;;;;;4.00;3.67;;;;;28.21;38.52;101890.75;5026331;28;45638;-73
2022/07/17 16:08:25;;;;;;;;;4.67;4.33;;;;;28.21;38.75;101889.88;5018977;28;45440;-74
2022/07/17 16:10:50;;;;;;;;;2.00;2.00;;;;;28.16;39.06;101882.22;5022728;28;45999;-74
2022/07/17 16:13:15;;;;;;;;;3.33;3.00;;;;;28.21;38.74;101888.03;5020738;28;45510;-73
2022/07/17 16:15:41;;;;;;;;;2.33;2.33;;;;;28.20;38.35;101880.00;5021582;28;49576;-72
2022/07/17 16:18:06;;;;;;;;;8.67;3.33;;;;;28.21;38.92;101881.69;5013412;28;45474;-72
2022/07/17 16:20:31;;;;;;;;;3.00;3.00;;;;;28.21;38.90;101884.41;5012687;28;45853;-73
2022/07/17 16:22:57;;;;;;;;;4.33;3.00;;;;;28.21;38.26;101887.16;5026289;28;51873;-72
2022/07/17 16:25:22;;;;;;;;;2.67;2.67;;;;;28.17;38.95;101885.78;5031497;28;45950;-72
2022/07/17 16:27:47;;;;;;;;;3.00;3.00;;;;;28.21;38.46;101890.75;5034392;28;45525;-74
2022/07/17 16:30:14;;;;;;;;;3.00;3.00;;;;;28.22;38.96;101886.97;5017647;28;45401;-75
2022/07/17 16:32:39;;;;;;;;;5.00;3.00;;;;;28.24;38.98;101879.50;5022416;28;46466;-72
2022/07/17 16:35:05;;;;;;;;;2.67;2.67;;;;;28.24;38.26;101875.91;5019562;28;45714;-73
2022/07/17 16:37:30;;;;;;;;;3.00;3.00;;;;;28.22;38.71;101873.34;5033267;28;45737;-74
2022/07/17 16:39:56;;;;;;;;;2.00;2.00;;;;;28.25;38.48;101869.44;5032353;28;45345;-72
